createdAt,value
2023-04-19T00:01:12.667Z,37.54
2023-04-19T00:03:44.940Z,37.38
2023-04-19T00:06:17.535Z,37.38
2023-04-19T00:08:49.760Z,37.17
2023-04-19T00:11:22.111Z,36.87
2023-04-19T00:13:54.072Z,36.61
2023-04-19T00:16:26.050Z,36.42
2023-04-19T00:18:58.155Z,36.69
2023-04-19T00:21:31.457Z,36.36
2023-04-19T00:24:04.562Z,36.52
2023-04-19T00:26:36.670Z,36.56
2023-04-19T00:29:09.773Z,36.65
2023-04-19T00:31:42.929Z,36.25
2023-04-19T00:34:15.247Z,36.41
2023-04-19T00:36:47.646Z,36.28
2023-04-19T00:39:20.120Z,36.10
2023-04-19T00:41:53.226Z,36.38
2023-04-19T00:44:25.719Z,36.42
2023-04-19T00:46:58.938Z,36.31
2023-04-19T00:49:31.641Z,36.22
2023-04-19T00:52:04.226Z,36.27
2023-04-19T00:54:36.599Z,36.30
2023-04-19T00:57:08.912Z,36.34
2023-04-19T00:59:41.170Z,36.53
2023-04-19T01:02:13.422Z,36.35
2023-04-19T01:04:46.522Z,36.52
2023-04-19T01:07:19.130Z,36.62
2023-04-19T01:09:51.302Z,36.63
2023-04-19T01:12:25.383Z,36.65
2023-04-19T01:14:58.167Z,36.88
2023-04-19T01:17:32.602Z,36.86
2023-04-19T01:20:07.109Z,36.97
2023-04-19T01:22:40.485Z,36.19
2023-04-19T01:25:12.688Z,36.93
2023-04-19T01:27:46.533Z,37.24
2023-04-19T01:30:18.884Z,37.40
2023-04-19T01:32:51.864Z,37.44
2023-04-19T01:35:25.456Z,37.45
2023-04-19T01:37:57.587Z,37.66
2023-04-19T01:40:29.875Z,37.81
2023-04-19T01:43:03.100Z,37.80
2023-04-19T01:45:36.384Z,37.98
2023-04-19T01:48:08.741Z,37.84
2023-04-19T01:50:40.903Z,37.94
2023-04-19T01:53:13.166Z,38.00
2023-04-19T01:55:45.642Z,38.24
2023-04-19T01:58:18.125Z,38.29
2023-04-19T02:00:50.534Z,38.06
2023-04-19T02:03:22.925Z,38.17
2023-04-19T02:05:55.523Z,38.47
2023-04-19T02:08:28.810Z,38.38
2023-04-19T02:11:00.967Z,38.38
2023-04-19T02:13:33.268Z,38.43
2023-04-19T02:16:06.237Z,38.53
2023-04-19T02:18:39.694Z,38.76
2023-04-19T02:21:12.753Z,38.50
2023-04-19T02:23:44.885Z,38.66
2023-04-19T02:26:16.989Z,38.75
2023-04-19T02:28:49.340Z,38.74
2023-04-19T02:31:21.857Z,38.91
2023-04-19T02:33:55.480Z,39.13
2023-04-19T02:36:27.779Z,39.05
2023-04-19T02:38:59.860Z,38.89
2023-04-19T02:41:32.179Z,38.83
2023-04-19T02:44:06.173Z,38.98
2023-04-19T02:46:38.836Z,39.10
2023-04-19T02:49:11.268Z,38.84
2023-04-19T02:51:43.470Z,38.99
2023-04-19T02:54:16.520Z,38.58
2023-04-19T02:56:49.251Z,38.66
2023-04-19T02:59:21.716Z,38.35
2023-04-19T03:01:53.885Z,38.23
2023-04-19T03:04:25.958Z,38.22
2023-04-19T03:06:59.517Z,38.17
2023-04-19T03:09:32.270Z,37.99
2023-04-19T03:12:04.545Z,37.93
2023-04-19T03:14:36.935Z,37.69
2023-04-19T03:17:09.538Z,37.74
2023-04-19T03:19:41.931Z,37.69
2023-04-19T03:22:14.164Z,37.66
2023-04-19T03:24:47.255Z,37.55
2023-04-19T03:27:24.226Z,37.76
2023-04-19T03:29:58.372Z,37.51
2023-04-19T03:32:33.741Z,37.27
2023-04-19T03:35:07.325Z,37.27
2023-04-19T03:37:39.490Z,37.06
2023-04-19T03:40:12.464Z,37.09
2023-04-19T03:42:45.218Z,37.05
2023-04-19T03:45:18.929Z,37.05
2023-04-19T03:47:52.096Z,36.69
2023-04-19T03:50:24.642Z,36.63
2023-04-19T03:52:57.566Z,36.65
2023-04-19T03:55:29.941Z,36.71
2023-04-19T03:58:02.920Z,36.33
2023-04-19T04:00:37.937Z,36.41
2023-04-19T04:03:10.331Z,36.23
2023-04-19T04:05:43.729Z,35.94
2023-04-19T04:08:16.109Z,35.94
2023-04-19T04:10:48.724Z,35.99
2023-04-19T04:13:21.589Z,35.77
2023-04-19T04:15:55.624Z,35.81
2023-04-19T04:18:28.680Z,35.63
2023-04-19T04:21:01.276Z,35.37
2023-04-19T04:23:34.361Z,35.45
2023-04-19T04:26:10.273Z,34.82
2023-04-19T04:28:44.383Z,35.02
2023-04-19T04:31:18.405Z,34.79
2023-04-19T04:33:51.149Z,34.63
2023-04-19T04:36:26.546Z,34.65
2023-04-19T04:39:01.395Z,34.73
2023-04-19T04:41:33.440Z,34.32
2023-04-19T04:44:12.645Z,34.11
2023-04-19T04:46:40.258Z,33.95
2023-04-19T04:49:13.728Z,34.07
2023-04-19T04:51:48.721Z,33.66
2023-04-19T04:54:21.252Z,33.77
2023-04-19T04:56:53.818Z,34.00
2023-04-19T04:59:26.969Z,34.27
2023-04-19T05:02:02.083Z,34.19
2023-04-19T05:04:34.573Z,34.06
2023-04-19T05:07:08.555Z,34.14
2023-04-19T05:09:42.403Z,34.69
2023-04-19T05:12:15.669Z,34.42
2023-04-19T05:14:48.191Z,34.37
2023-04-19T05:17:21.293Z,34.69
2023-04-19T05:19:53.633Z,34.48
2023-04-19T05:22:26.494Z,34.34
2023-04-19T05:24:59.115Z,34.53
2023-04-19T05:27:33.376Z,34.52
2023-04-19T05:30:07.905Z,34.14
2023-04-19T05:32:42.260Z,34.41
2023-04-19T05:35:15.940Z,34.57
2023-04-19T05:37:48.730Z,34.11
2023-04-19T05:40:21.190Z,34.56
2023-04-19T05:42:53.319Z,34.23
2023-04-19T05:45:27.135Z,33.65
2023-04-19T05:47:59.771Z,33.24
2023-04-19T05:50:40.578Z,32.76
2023-04-19T05:53:14.458Z,32.93
2023-04-19T05:55:48.313Z,32.66
2023-04-19T05:58:21.024Z,32.30
2023-04-19T06:00:53.997Z,31.42
2023-04-19T06:03:28.820Z,29.95
2023-04-19T06:06:00.826Z,29.57
2023-04-19T06:08:33.297Z,28.70
2023-04-19T06:11:15.854Z,28.13
2023-04-19T06:13:39.814Z,28.07
2023-04-19T06:16:12.284Z,27.65
2023-04-19T06:18:44.791Z,27.33
2023-04-19T06:21:17.089Z,26.46
2023-04-19T06:23:49.617Z,25.70
2023-04-19T06:26:22.364Z,25.51
2023-04-19T06:28:54.834Z,25.26
2023-04-19T06:31:27.267Z,24.87
2023-04-19T06:33:59.286Z,24.16
2023-04-19T06:36:31.621Z,23.69
2023-04-19T06:39:04.660Z,23.33
2023-04-19T06:41:37.128Z,22.15
2023-04-19T06:44:10.782Z,21.86
2023-04-19T06:46:43.914Z,20.99
2023-04-19T06:49:16.144Z,20.32
2023-04-19T06:51:48.092Z,19.68
2023-04-19T06:54:20.611Z,19.42
2023-04-19T06:56:53.204Z,18.12
2023-04-19T06:59:27.373Z,17.72
2023-04-19T07:01:59.460Z,17.44
2023-04-19T07:04:31.675Z,16.66
2023-04-19T07:07:04.296Z,16.38
2023-04-19T07:09:36.945Z,16.03
2023-04-19T07:12:09.374Z,15.61
2023-04-19T07:14:41.499Z,16.01
2023-04-19T07:17:14.537Z,16.23
2023-04-19T07:19:51.319Z,17.30
2023-04-19T07:22:23.898Z,18.28
2023-04-19T07:24:56.704Z,19.02
2023-04-19T07:27:29.096Z,19.04
2023-04-19T07:30:01.836Z,19.60
2023-04-19T07:32:34.829Z,20.07
2023-04-19T07:35:07.768Z,20.50
2023-04-19T07:37:40.431Z,20.51
2023-04-19T07:40:13.539Z,20.94
2023-04-19T07:42:45.948Z,21.75
2023-04-19T07:45:18.416Z,21.81
2023-04-19T07:47:51.059Z,22.34
2023-04-19T07:50:23.390Z,21.90
2023-04-19T07:52:57.140Z,22.58
2023-04-19T07:55:30.311Z,22.61
2023-04-19T07:58:03.400Z,22.22
2023-04-19T08:00:36.877Z,22.56
2023-04-19T08:03:09.421Z,22.71
2023-04-19T08:05:42.249Z,22.72
2023-04-19T08:08:14.566Z,22.76
2023-04-19T08:10:46.935Z,22.89
2023-04-19T08:13:19.350Z,22.96
2023-04-19T08:16:26.822Z,23.32
2023-04-19T08:18:27.034Z,23.10
2023-04-19T08:21:00.306Z,22.83
2023-04-19T08:23:45.037Z,23.12
2023-04-19T08:26:06.765Z,23.58
2023-04-19T08:28:39.209Z,23.25
2023-04-19T08:31:11.533Z,23.21
2023-04-19T08:33:43.876Z,22.74
2023-04-19T08:36:21.960Z,23.34
2023-04-19T08:39:01.861Z,22.84
2023-04-19T08:41:27.887Z,22.93
2023-04-19T08:44:01.181Z,22.85
2023-04-19T08:46:33.664Z,22.62
2023-04-19T08:49:07.634Z,22.86
2023-04-19T08:51:41.244Z,23.12
2023-04-19T08:54:13.576Z,22.82
2023-04-19T08:56:45.508Z,22.76
2023-04-19T08:59:20.744Z,22.85
2023-04-19T09:01:52.136Z,23.10
2023-04-19T09:04:36.571Z,22.90
2023-04-19T09:06:58.563Z,23.58
2023-04-19T09:12:09.454Z,22.83
2023-04-19T09:14:53.867Z,22.87
2023-04-19T09:17:18.979Z,22.55
2023-04-19T09:19:51.807Z,23.30
2023-04-19T09:22:24.835Z,22.93
2023-04-19T09:27:40.402Z,23.57
2023-04-19T09:30:24.124Z,24.06
2023-04-19T09:32:49.695Z,23.25
2023-04-19T09:35:26.476Z,23.69
2023-04-19T09:38:06.738Z,22.74
2023-04-19T09:40:37.639Z,23.56
2023-04-19T09:43:29.111Z,24.32
2023-04-19T09:45:48.174Z,24.48
2023-04-19T09:48:21.675Z,24.41
2023-04-19T09:51:00.824Z,24.80
2023-04-19T09:53:44.679Z,23.86
2023-04-19T09:56:17.708Z,23.47
2023-04-19T09:58:54.538Z,23.56
2023-04-19T10:01:26.824Z,23.47
2023-04-19T10:04:14.466Z,23.45
2023-04-19T10:06:46.302Z,24.41
2023-04-19T10:09:08.845Z,24.58
2023-04-19T10:11:42.937Z,24.41
2023-04-19T10:14:16.963Z,24.69
2023-04-19T10:16:49.821Z,24.62
2023-04-19T10:19:23.694Z,24.63
2023-04-19T10:21:56.677Z,24.35
2023-04-19T10:24:28.909Z,24.25
2023-04-19T10:27:12.762Z,24.31
2023-04-19T10:30:02.004Z,24.38
2023-04-19T10:32:46.464Z,23.92
2023-04-19T10:35:29.938Z,23.93
2023-04-19T10:38:07.947Z,23.79
2023-04-19T10:40:57.478Z,23.57
2023-04-19T10:43:34.637Z,23.73
2023-04-19T10:46:12.029Z,24.03
2023-04-19T10:49:01.112Z,24.09
2023-04-19T10:51:42.485Z,23.41
2023-04-19T10:54:37.968Z,23.65
2023-04-19T10:57:12.031Z,23.85
2023-04-19T10:59:44.502Z,23.49
2023-04-19T11:02:32.114Z,23.62
2023-04-19T11:05:04.637Z,23.79
2023-04-19T11:07:39.023Z,23.64
2023-04-19T11:10:12.603Z,23.97
2023-04-19T11:12:45.910Z,23.34
2023-04-19T11:15:18.381Z,23.29
2023-04-19T11:18:04.980Z,23.38
2023-04-19T11:20:26.991Z,23.40
2023-04-19T11:23:00.758Z,23.12
2023-04-19T11:25:34.192Z,23.04
2023-04-19T11:28:06.733Z,23.15
2023-04-19T11:30:39.425Z,23.14
2023-04-19T11:33:13.740Z,22.74
2023-04-19T11:35:46.169Z,23.25
2023-04-19T11:38:18.218Z,22.67
2023-04-19T11:40:52.074Z,22.34
2023-04-19T11:43:24.301Z,22.21
2023-04-19T11:45:56.816Z,22.31
2023-04-19T11:48:29.266Z,22.30
2023-04-19T11:51:02.275Z,23.34
2023-04-19T11:53:35.329Z,21.97
2023-04-19T11:56:09.227Z,21.77
2023-04-19T11:58:45.328Z,21.50
2023-04-19T12:01:22.829Z,21.87
2023-04-19T12:03:59.523Z,21.66
2023-04-19T12:06:32.646Z,21.31
2023-04-19T12:09:08.077Z,21.00
2023-04-19T12:11:49.882Z,20.59
2023-04-19T12:14:23.910Z,19.77
2023-04-19T12:17:10.543Z,17.88
2023-04-19T12:19:47.994Z,16.25
2023-04-19T12:22:21.367Z,14.63
2023-04-19T12:24:55.526Z,13.36
2023-04-19T12:27:27.739Z,12.12
2023-04-19T12:29:59.608Z,11.97
2023-04-19T12:32:33.344Z,12.67
2023-04-19T12:35:05.798Z,12.53
2023-04-19T12:37:38.146Z,11.83
2023-04-19T12:40:11.101Z,10.88
2023-04-19T12:42:43.543Z,10.24
2023-04-19T12:45:15.844Z,9.22
2023-04-19T12:47:49.380Z,8.42
2023-04-19T12:50:22.161Z,7.90
2023-04-19T12:52:54.877Z,7.29
2023-04-19T12:55:27.162Z,6.82
2023-04-19T12:57:59.471Z,6.74
2023-04-19T13:00:31.541Z,6.79
2023-04-19T13:03:03.849Z,6.48
2023-04-19T13:05:36.443Z,6.40
2023-04-19T13:08:08.503Z,6.29
2023-04-19T13:10:40.493Z,6.36
2023-04-19T13:13:12.812Z,6.49
2023-04-19T13:15:46.004Z,6.58
2023-04-19T13:18:18.506Z,7.49
2023-04-19T13:20:51.689Z,8.72
2023-04-19T13:23:24.026Z,10.09
2023-04-19T13:25:56.768Z,11.26
2023-04-19T13:28:30.810Z,12.55
2023-04-19T13:31:03.327Z,12.97
2023-04-19T13:33:35.711Z,13.41
2023-04-19T13:36:08.837Z,12.96
2023-04-19T13:38:40.864Z,12.21
2023-04-19T13:41:13.731Z,11.02
2023-04-19T13:43:46.174Z,9.90
2023-04-19T13:46:18.262Z,9.11
2023-04-19T13:48:50.348Z,8.42
2023-04-19T13:51:22.544Z,8.23
2023-04-19T13:53:55.588Z,7.96
2023-04-19T13:56:27.948Z,8.19
2023-04-19T13:59:00.059Z,9.25
2023-04-19T14:01:32.551Z,10.00
2023-04-19T14:04:05.373Z,10.91
2023-04-19T14:06:37.843Z,11.03
2023-04-19T14:09:09.952Z,10.34
2023-04-19T14:11:42.226Z,10.07
2023-04-19T14:14:15.058Z,10.21
2023-04-19T14:16:47.701Z,9.85
2023-04-19T14:19:19.857Z,9.70
2023-04-19T14:21:52.524Z,9.54
2023-04-19T14:24:24.573Z,10.19
2023-04-19T14:27:10.360Z,11.15
2023-04-19T14:29:32.642Z,11.00
2023-04-19T14:32:13.454Z,10.77
2023-04-19T14:34:38.912Z,10.25
2023-04-19T14:37:11.399Z,9.72
2023-04-19T14:39:43.515Z,10.67
2023-04-19T14:42:16.118Z,9.19
2023-04-19T14:44:48.716Z,8.93
2023-04-19T14:47:21.933Z,9.16
2023-04-19T14:49:54.442Z,9.46
2023-04-19T14:52:26.987Z,10.32
2023-04-19T14:55:00.327Z,11.41
2023-04-19T14:57:33.510Z,12.84
2023-04-19T15:00:06.852Z,13.90
2023-04-19T15:02:40.062Z,14.55
2023-04-19T15:05:12.647Z,17.01
2023-04-19T15:07:45.180Z,17.00
2023-04-19T15:10:17.730Z,18.38
2023-04-19T15:12:50.636Z,17.95
2023-04-19T15:15:23.105Z,16.90
2023-04-19T15:17:55.773Z,17.01
2023-04-19T15:20:28.168Z,17.56
2023-04-19T15:23:00.362Z,17.28
2023-04-19T15:25:32.563Z,17.82
2023-04-19T15:28:04.886Z,18.07
2023-04-19T15:30:37.163Z,18.17
2023-04-19T15:33:09.653Z,18.36
2023-04-19T15:35:42.416Z,18.43
2023-04-19T15:38:14.665Z,18.86
2023-04-19T15:40:46.971Z,19.37
2023-04-19T15:43:19.245Z,19.48
2023-04-19T15:45:51.712Z,19.70
2023-04-19T15:48:24.046Z,19.86
2023-04-19T15:50:56.094Z,20.41
2023-04-19T15:53:28.805Z,20.48
2023-04-19T15:56:01.506Z,20.58
2023-04-19T15:58:33.572Z,20.43
2023-04-19T16:01:07.491Z,21.08
2023-04-19T16:03:39.913Z,21.02
2023-04-19T16:06:12.303Z,21.17
2023-04-19T16:08:44.496Z,21.36
2023-04-19T16:11:16.693Z,21.56
2023-04-19T16:13:49.293Z,21.63
2023-04-19T16:16:21.518Z,21.61
2023-04-19T16:18:53.686Z,21.80
2023-04-19T16:21:27.791Z,21.87
2023-04-19T16:24:01.374Z,22.15
2023-04-19T16:26:33.438Z,22.04
2023-04-19T16:29:06.233Z,22.21
2023-04-19T16:31:38.449Z,22.73
2023-04-19T16:34:10.878Z,22.69
2023-04-19T16:36:44.896Z,22.71
2023-04-19T16:39:17.121Z,22.89
2023-04-19T16:41:49.719Z,23.11
2023-04-19T16:44:22.519Z,23.38
2023-04-19T16:46:55.522Z,23.34
2023-04-19T16:49:28.346Z,23.76
2023-04-19T16:52:00.539Z,23.59
2023-04-19T16:54:32.707Z,23.78
2023-04-19T16:57:05.124Z,23.93
2023-04-19T16:59:37.456Z,24.32
2023-04-19T17:02:11.180Z,24.46
2023-04-19T17:04:44.128Z,24.57
2023-04-19T17:07:16.658Z,24.46
2023-04-19T17:09:49.026Z,24.54
2023-04-19T17:12:21.768Z,24.75
2023-04-19T17:14:53.960Z,24.89
2023-04-19T17:17:26.213Z,24.39
2023-04-19T17:19:58.400Z,25.00
2023-04-19T17:22:30.627Z,25.10
2023-04-19T17:25:03.666Z,25.32
2023-04-19T17:27:36.331Z,25.44
2023-04-19T17:30:09.581Z,25.80
2023-04-19T17:32:42.474Z,25.73
2023-04-19T17:35:15.471Z,25.83
2023-04-19T17:37:47.758Z,25.96
2023-04-19T17:40:20.060Z,25.83
2023-04-19T17:42:52.339Z,25.88
2023-04-19T17:45:25.129Z,25.98
2023-04-19T17:47:57.486Z,25.93
2023-04-19T17:50:30.230Z,26.12
2023-04-19T17:53:02.455Z,26.23
2023-04-19T17:55:34.588Z,26.44
2023-04-19T17:58:06.968Z,26.38
2023-04-19T18:00:39.451Z,26.64
2023-04-19T18:03:11.855Z,26.33
2023-04-19T18:05:44.658Z,26.13
2023-04-19T18:08:16.985Z,26.18
2023-04-19T18:10:48.966Z,25.90
2023-04-19T18:13:20.999Z,26.25
2023-04-19T18:15:53.452Z,26.31
2023-04-19T18:18:27.426Z,26.36
2023-04-19T18:21:00.005Z,26.45
2023-04-19T18:23:32.141Z,26.80
2023-04-19T18:26:04.979Z,27.03
2023-04-19T18:28:37.712Z,26.82
2023-04-19T18:31:10.476Z,26.62
2023-04-19T18:33:42.764Z,26.51
2023-04-19T18:36:14.917Z,26.74
2023-04-19T18:38:47.141Z,26.53
2023-04-19T18:41:19.147Z,26.84
2023-04-19T18:44:13.612Z,26.87
2023-04-19T18:46:27.808Z,26.85
2023-04-19T18:49:00.056Z,27.12
2023-04-19T18:51:33.009Z,26.71
2023-04-19T18:54:05.632Z,26.94
2023-04-19T18:59:11.880Z,27.05
2023-04-19T19:01:45.391Z,26.79
2023-04-19T19:04:33.941Z,27.16
2023-04-19T19:07:00.254Z,26.68
2023-04-19T19:09:30.912Z,26.72
2023-04-19T19:12:03.011Z,27.07
2023-04-19T19:14:35.952Z,26.91
2023-04-19T19:17:08.164Z,26.80
2023-04-19T19:19:40.474Z,26.72
2023-04-19T19:22:25.252Z,26.72
2023-04-19T19:24:46.773Z,26.92
2023-04-19T19:27:18.871Z,26.98
2023-04-19T19:29:51.092Z,27.12
2023-04-19T19:32:23.356Z,26.98
2023-04-19T19:35:00.910Z,26.94
2023-04-19T19:37:29.365Z,26.96
2023-04-19T19:40:04.506Z,27.07
2023-04-19T19:42:36.035Z,26.55
2023-04-19T19:45:09.492Z,27.32
2023-04-19T19:47:45.484Z,27.12
2023-04-19T19:52:49.578Z,26.87
2023-04-19T19:55:22.066Z,26.96
2023-04-19T20:03:02.264Z,27.09
2023-04-19T20:05:35.074Z,26.96
2023-04-19T20:08:10.482Z,27.01
2023-04-19T20:10:43.927Z,27.13
2023-04-19T20:13:16.256Z,27.33
2023-04-19T20:15:48.443Z,27.23
2023-04-19T20:18:21.246Z,27.67
2023-04-19T20:20:53.310Z,27.61
2023-04-19T20:23:25.510Z,27.89
2023-04-19T20:25:59.162Z,27.96
2023-04-19T20:28:31.174Z,28.12
2023-04-19T20:31:03.349Z,28.15
2023-04-19T20:33:36.089Z,28.01
2023-04-19T20:36:09.782Z,28.39
2023-04-19T20:38:42.163Z,28.28
2023-04-19T20:41:14.363Z,28.42
2023-04-19T20:43:46.609Z,28.21
2023-04-19T20:46:18.776Z,28.37
2023-04-19T20:48:51.093Z,28.67
2023-04-19T20:51:23.247Z,28.43
2023-04-19T20:53:55.587Z,28.33
2023-04-19T20:56:27.704Z,28.59
2023-04-19T20:58:59.960Z,28.51
2023-04-19T21:01:32.233Z,28.68
2023-04-19T21:04:05.230Z,28.62
2023-04-19T21:06:37.640Z,28.52
2023-04-19T21:09:09.885Z,28.56
2023-04-19T21:11:42.042Z,28.84
2023-04-19T21:14:14.056Z,28.64
2023-04-19T21:16:46.487Z,28.37
2023-04-19T21:19:18.985Z,28.63
2023-04-19T21:21:51.165Z,28.56
2023-04-19T21:24:23.495Z,28.49
2023-04-19T21:26:55.924Z,28.58
2023-04-19T21:29:27.925Z,28.47
2023-04-19T21:32:00.380Z,28.40
2023-04-19T21:34:32.760Z,28.58
2023-04-19T21:37:04.675Z,28.80
2023-04-19T21:39:36.817Z,28.64
2023-04-19T21:42:08.921Z,28.65
2023-04-19T21:44:41.016Z,28.72
2023-04-19T21:47:13.771Z,28.89
2023-04-19T21:49:47.215Z,28.96
2023-04-19T21:52:19.345Z,29.00
2023-04-19T21:54:51.447Z,28.96
2023-04-19T21:57:24.732Z,29.11
2023-04-19T21:59:56.946Z,29.11
2023-04-19T22:02:29.657Z,29.17
2023-04-19T22:05:01.994Z,29.22
2023-04-19T22:07:36.035Z,29.33
2023-04-19T22:10:09.660Z,29.22
2023-04-19T22:12:55.033Z,29.27
2023-04-19T22:15:16.353Z,29.36
2023-04-19T22:17:48.460Z,29.42
2023-04-19T22:20:21.302Z,29.47
2023-04-19T22:22:53.663Z,29.74
2023-04-19T22:25:25.845Z,30.02
2023-04-19T22:27:57.946Z,30.05
2023-04-19T22:30:29.894Z,30.10
2023-04-19T22:33:02.123Z,30.41
2023-04-19T22:35:34.252Z,30.55
2023-04-19T22:38:06.525Z,30.64
2023-04-19T22:40:38.786Z,30.65
2023-04-19T22:43:11.128Z,30.80
2023-04-19T22:45:45.671Z,30.86
2023-04-19T22:48:17.384Z,30.90
2023-04-19T22:50:50.420Z,29.53
2023-04-19T22:53:22.560Z,30.97
2023-04-19T22:55:55.004Z,31.06
2023-04-19T22:58:27.228Z,30.95
2023-04-19T23:00:59.280Z,31.16
2023-04-19T23:03:31.589Z,30.95
2023-04-19T23:06:04.193Z,30.81
2023-04-19T23:08:36.776Z,30.94
2023-04-19T23:11:10.203Z,30.99
2023-04-19T23:13:42.290Z,31.13
2023-04-19T23:16:14.538Z,30.93
2023-04-19T23:18:46.996Z,31.00
2023-04-19T23:21:19.209Z,31.15
2023-04-19T23:23:51.990Z,31.24
2023-04-19T23:26:24.125Z,31.25
2023-04-19T23:28:56.350Z,31.53
2023-04-19T23:31:28.542Z,31.31
2023-04-19T23:34:00.776Z,31.72
2023-04-19T23:36:32.841Z,31.74
2023-04-19T23:39:05.209Z,31.72
2023-04-19T23:41:37.476Z,32.36
2023-04-19T23:44:09.795Z,32.04
2023-04-19T23:46:41.999Z,31.88
2023-04-19T23:49:14.004Z,32.29
2023-04-19T23:51:47.634Z,32.72
2023-04-19T23:54:21.456Z,32.74
2023-04-19T23:56:54.746Z,32.80
2023-04-19T23:59:29.977Z,32.75
